createdAt,value
2019-06-15T00:01:45.099Z,96.93
2019-06-15T00:04:14.433Z,97.16
2019-06-15T00:06:43.805Z,97.25
2019-06-15T00:09:13.164Z,97.37
2019-06-15T00:11:42.622Z,97.34
2019-06-15T00:14:11.950Z,97.41
2019-06-15T00:16:41.361Z,97.31
2019-06-15T00:19:10.720Z,97.29
2019-06-15T00:21:40.116Z,97.28
2019-06-15T00:24:09.522Z,97.52
2019-06-15T00:26:38.915Z,97.57
2019-06-15T00:29:08.250Z,97.65
2019-06-15T00:31:37.683Z,98.00
2019-06-15T00:34:07.078Z,98.08
2019-06-15T00:36:36.444Z,97.93
2019-06-15T00:39:45.991Z,97.78
2019-06-15T00:42:15.347Z,97.74
2019-06-15T00:44:44.752Z,98.35
2019-06-15T00:47:14.184Z,98.30
2019-06-15T00:49:43.574Z,98.49
2019-06-15T00:52:12.920Z,98.40
2019-06-15T00:54:50.455Z,98.56
2019-06-15T00:57:13.353Z,98.59
2019-06-15T00:59:42.711Z,98.94
2019-06-15T01:02:12.057Z,98.99
2019-06-15T01:04:41.474Z,99.02
2019-06-15T01:07:10.860Z,99.29
2019-06-15T01:09:40.221Z,100.00
2019-06-15T01:12:09.712Z,99.52
2019-06-15T01:14:39.128Z,99.29
2019-06-15T01:17:08.449Z,99.22
2019-06-15T01:19:37.831Z,98.98
2019-06-15T01:22:07.206Z,98.99
2019-06-15T01:24:36.621Z,98.95
2019-06-15T01:27:06.023Z,99.07
2019-06-15T01:29:35.373Z,98.96
2019-06-15T01:32:04.741Z,98.91
2019-06-15T01:34:34.088Z,98.89
2019-06-15T01:37:03.476Z,98.94
2019-06-15T01:39:32.840Z,98.94
2019-06-15T01:42:02.238Z,99.08
2019-06-15T01:44:31.582Z,99.20
2019-06-15T01:47:00.968Z,99.29
2019-06-15T01:49:30.355Z,99.33
2019-06-15T01:51:59.746Z,99.66
2019-06-15T01:54:29.105Z,100.00
2019-06-15T01:56:58.541Z,100.00
2019-06-15T01:59:27.906Z,100.00
2019-06-15T02:01:57.261Z,100.00
2019-06-15T02:04:26.674Z,100.00
2019-06-15T02:06:56.048Z,99.99
2019-06-15T02:09:25.469Z,100.00
2019-06-15T02:11:54.857Z,100.00
2019-06-15T02:14:24.195Z,100.00
2019-06-15T02:16:53.570Z,100.00
2019-06-15T02:19:22.931Z,100.00
2019-06-15T02:21:52.275Z,100.00
2019-06-15T02:24:21.677Z,100.00
2019-06-15T02:26:51.046Z,100.00
2019-06-15T02:29:20.528Z,100.00
2019-06-15T02:31:49.915Z,100.00
2019-06-15T02:34:19.366Z,100.00
2019-06-15T02:36:48.709Z,100.00
2019-06-15T02:39:18.177Z,100.00
2019-06-15T02:41:47.561Z,100.00
2019-06-15T02:44:17.158Z,100.00
2019-06-15T02:46:46.744Z,99.88
2019-06-15T02:49:16.093Z,99.80
2019-06-15T02:51:45.507Z,99.55
2019-06-15T02:54:14.880Z,99.53
2019-06-15T02:56:44.209Z,99.48
2019-06-15T02:59:13.612Z,99.48
2019-06-15T03:01:42.986Z,99.48
2019-06-15T03:04:12.452Z,99.38
2019-06-15T03:12:11.448Z,99.31
2019-06-15T03:14:41.153Z,99.10
2019-06-15T03:17:10.491Z,98.82
2019-06-15T03:19:39.855Z,98.83
2019-06-15T03:22:09.261Z,98.38
2019-06-15T03:24:38.632Z,98.22
2019-06-15T03:27:07.968Z,98.08
2019-06-15T03:29:37.339Z,97.81
2019-06-15T03:32:06.692Z,97.54
2019-06-15T03:34:36.027Z,97.40
2019-06-15T03:37:05.404Z,97.29
2019-06-15T03:39:34.818Z,97.87
2019-06-15T03:42:04.297Z,97.20
2019-06-15T03:44:33.662Z,96.83
2019-06-15T03:47:03.137Z,96.45
2019-06-15T03:49:32.530Z,96.09
2019-06-15T03:52:01.890Z,95.73
2019-06-15T03:54:31.235Z,95.26
2019-06-15T03:57:00.580Z,94.80
2019-06-15T03:59:29.947Z,94.47
2019-06-15T04:01:59.368Z,94.21
2019-06-15T04:04:28.691Z,93.47
2019-06-15T04:06:58.048Z,93.24
2019-06-15T04:09:27.477Z,93.48
2019-06-15T04:11:56.850Z,93.37
2019-06-15T04:14:26.249Z,93.20
2019-06-15T04:16:55.629Z,92.75
2019-06-15T04:19:24.987Z,92.56
2019-06-15T04:24:29.027Z,92.10
2019-06-15T04:26:58.390Z,92.37
2019-06-15T04:29:27.740Z,92.29
2019-06-15T04:31:57.133Z,91.81
2019-06-15T04:34:26.561Z,91.30
2019-06-15T04:36:55.936Z,90.43
2019-06-15T04:39:25.332Z,90.07
2019-06-15T04:41:54.671Z,89.78
2019-06-15T04:44:24.047Z,89.52
2019-06-15T04:46:53.442Z,88.97
2019-06-15T04:49:22.817Z,88.81
2019-06-15T04:51:52.232Z,88.82
2019-06-15T04:54:21.605Z,88.54
2019-06-15T04:56:51.448Z,88.37
2019-06-15T04:59:22.200Z,88.25
2019-06-15T05:01:51.556Z,88.38
2019-06-15T05:04:20.911Z,88.26
2019-06-15T05:06:50.261Z,88.47
2019-06-15T05:09:19.616Z,88.47
2019-06-15T05:11:48.976Z,88.48
2019-06-15T05:14:18.357Z,87.90
2019-06-15T05:16:47.682Z,87.71
2019-06-15T05:19:17.129Z,87.23
2019-06-15T05:21:46.538Z,87.57
2019-06-15T05:24:15.978Z,87.19
2019-06-15T05:29:33.639Z,86.19
2019-06-15T05:34:51.343Z,86.37
2019-06-15T05:37:20.813Z,86.25
2019-06-15T05:39:50.190Z,86.34
2019-06-15T05:42:19.545Z,86.69
2019-06-15T05:44:48.853Z,86.24
2019-06-15T05:47:18.307Z,85.82
2019-06-15T05:49:47.639Z,85.76
2019-06-15T05:52:17.034Z,86.00
2019-06-15T05:54:46.411Z,85.74
2019-06-15T05:57:21.619Z,85.12
2019-06-15T05:59:46.928Z,84.97
2019-06-15T06:02:16.398Z,84.82
2019-06-15T06:04:45.793Z,84.67
2019-06-15T06:07:34.194Z,84.49
2019-06-15T06:12:38.921Z,83.71
2019-06-15T06:15:08.430Z,83.16
2019-06-15T06:17:37.757Z,82.41
2019-06-15T06:20:27.522Z,81.53
2019-06-15T06:22:56.920Z,80.96
2019-06-15T06:25:26.260Z,81.10
2019-06-15T06:27:55.656Z,80.56
2019-06-15T06:30:25.022Z,80.22
2019-06-15T06:32:54.457Z,78.63
2019-06-15T06:35:23.825Z,79.62
2019-06-15T06:37:53.140Z,76.64
2019-06-15T06:40:22.840Z,78.38
2019-06-15T06:42:52.207Z,78.29
2019-06-15T06:45:21.777Z,77.97
2019-06-15T06:47:51.144Z,77.70
2019-06-15T06:50:20.749Z,77.36
2019-06-15T06:52:50.255Z,77.33
2019-06-15T06:55:40.026Z,76.51
2019-06-15T06:58:09.377Z,72.41
2019-06-15T07:00:38.705Z,72.87
2019-06-15T07:03:26.972Z,74.09
2019-06-15T07:05:56.380Z,69.92
2019-06-15T07:11:14.100Z,71.38
2019-06-15T07:13:43.473Z,71.81
2019-06-15T07:16:12.871Z,70.57
2019-06-15T07:18:42.268Z,69.39
2019-06-15T07:21:11.653Z,68.05
2019-06-15T07:23:41.075Z,68.00
2019-06-15T07:26:10.391Z,66.69
2019-06-15T07:28:39.831Z,60.58
2019-06-15T07:31:09.290Z,66.75
2019-06-15T07:33:38.670Z,66.45
2019-06-15T07:36:08.154Z,65.31
2019-06-15T07:38:37.504Z,63.50
2019-06-15T07:41:06.845Z,65.41
2019-06-15T07:43:36.231Z,64.41
2019-06-15T07:46:05.643Z,65.20
2019-06-15T07:48:35.020Z,65.20
2019-06-15T07:51:04.387Z,64.88
2019-06-15T07:56:33.557Z,63.11
2019-06-15T07:59:02.908Z,63.68
2019-06-15T08:01:32.254Z,63.01
2019-06-15T08:04:01.638Z,61.55
2019-06-15T08:09:19.392Z,61.53
2019-06-15T08:11:48.774Z,59.86
2019-06-15T08:14:18.156Z,60.94
2019-06-15T08:16:47.745Z,61.12
2019-06-15T08:19:17.211Z,60.04
2019-06-15T08:21:46.690Z,60.55
2019-06-15T08:24:16.219Z,57.78
2019-06-15T08:26:45.579Z,60.04
2019-06-15T08:29:15.128Z,58.69
2019-06-15T08:31:44.549Z,59.87
2019-06-15T08:34:13.946Z,59.58
2019-06-15T08:36:43.260Z,59.81
2019-06-15T08:39:12.631Z,59.52
2019-06-15T08:41:41.977Z,59.63
2019-06-15T08:44:11.347Z,59.30
2019-06-15T08:46:40.691Z,58.96
2019-06-15T08:49:09.984Z,58.85
2019-06-15T08:51:58.244Z,57.11
2019-06-15T08:54:27.638Z,57.74
2019-06-15T08:56:56.946Z,57.53
2019-06-15T08:59:26.291Z,57.96
2019-06-15T09:01:55.586Z,57.91
2019-06-15T09:04:24.887Z,57.76
2019-06-15T09:06:54.194Z,57.33
2019-06-15T09:09:23.499Z,57.00
2019-06-15T09:11:52.830Z,57.19
2019-06-15T09:14:22.161Z,57.27
2019-06-15T09:16:51.472Z,57.08
2019-06-15T09:19:20.817Z,56.82
2019-06-15T09:21:50.114Z,56.65
2019-06-15T09:24:19.427Z,56.47
2019-06-15T09:26:48.754Z,55.73
2019-06-15T09:29:18.091Z,53.89
2019-06-15T09:31:47.394Z,55.69
2019-06-15T09:34:19.356Z,55.50
2019-06-15T09:36:47.779Z,55.26
2019-06-15T09:39:17.155Z,55.19
2019-06-15T09:41:46.481Z,54.97
2019-06-15T09:44:15.821Z,55.16
2019-06-15T09:46:45.112Z,54.62
2019-06-15T09:49:14.417Z,54.16
2019-06-15T09:51:43.713Z,54.37
2019-06-15T09:54:32.089Z,54.17
2019-06-15T09:57:01.405Z,54.19
2019-06-15T09:59:30.709Z,53.83
2019-06-15T10:02:00.056Z,53.82
2019-06-15T10:04:29.402Z,53.45
2019-06-15T10:06:58.788Z,53.02
2019-06-15T10:09:28.157Z,45.84
2019-06-15T10:11:57.424Z,51.93
2019-06-15T10:14:26.707Z,51.67
2019-06-15T10:16:56.054Z,50.96
2019-06-15T10:19:25.409Z,51.20
2019-06-15T10:21:54.801Z,50.92
2019-06-15T10:24:43.161Z,50.34
2019-06-15T10:27:12.468Z,44.54
2019-06-15T10:29:42.435Z,50.01
2019-06-15T10:32:12.810Z,49.59
2019-06-15T10:34:42.150Z,49.34
2019-06-15T10:37:11.462Z,48.78
2019-06-15T10:39:40.790Z,48.78
2019-06-15T10:42:29.032Z,47.15
2019-06-15T10:44:58.341Z,48.30
2019-06-15T10:47:27.661Z,46.81
2019-06-15T10:52:31.587Z,45.14
2019-06-15T10:55:00.910Z,48.53
2019-06-15T10:57:30.580Z,48.26
2019-06-15T10:59:59.908Z,48.64
2019-06-15T11:02:29.195Z,48.29
2019-06-15T11:04:58.488Z,46.94
2019-06-15T11:07:27.795Z,48.31
2019-06-15T11:09:57.050Z,45.31
2019-06-15T11:12:26.329Z,44.83
2019-06-15T11:14:55.645Z,47.09
2019-06-15T11:17:25.029Z,44.06
2019-06-15T11:19:54.275Z,46.93
2019-06-15T11:22:42.483Z,46.86
2019-06-15T11:25:11.740Z,46.93
2019-06-15T11:27:41.029Z,46.51
2019-06-15T11:33:05.587Z,46.16
2019-06-15T11:35:34.854Z,46.05
2019-06-15T11:38:23.039Z,45.74
2019-06-15T11:40:52.335Z,46.19
2019-06-15T11:43:21.633Z,45.55
2019-06-15T11:45:50.918Z,45.37
2019-06-15T11:48:39.080Z,44.60
2019-06-15T11:51:08.343Z,45.34
2019-06-15T11:53:37.608Z,45.16
2019-06-15T11:56:06.914Z,44.83
2019-06-15T11:58:47.842Z,43.90
2019-06-15T12:01:18.969Z,43.92
2019-06-15T12:03:48.122Z,44.10
2019-06-15T12:06:17.393Z,43.77
2019-06-15T12:08:46.746Z,43.98
2019-06-15T12:11:16.054Z,43.79
2019-06-15T12:16:20.338Z,43.54
2019-06-15T12:18:49.620Z,43.49
2019-06-15T12:21:18.891Z,42.99
2019-06-15T12:26:36.402Z,42.25
2019-06-15T12:29:07.784Z,43.26
2019-06-15T12:31:36.836Z,43.24
2019-06-15T12:34:06.133Z,43.10
2019-06-15T12:36:35.423Z,43.31
2019-06-15T12:39:44.036Z,43.44
2019-06-15T12:42:13.295Z,43.61
2019-06-15T12:45:01.661Z,43.60
2019-06-15T12:47:30.935Z,43.30
2019-06-15T12:50:19.098Z,43.47
2019-06-15T12:52:48.366Z,43.61
2019-06-15T12:55:17.621Z,43.15
2019-06-15T12:57:46.909Z,43.17
2019-06-15T13:05:58.085Z,43.37
2019-06-15T13:08:27.377Z,43.34
2019-06-15T13:10:56.701Z,42.98
2019-06-15T13:13:25.971Z,40.25
2019-06-15T13:15:55.256Z,43.80
2019-06-15T13:18:24.526Z,43.78
2019-06-15T13:20:53.809Z,43.69
2019-06-15T13:23:23.061Z,41.82
2019-06-15T13:28:27.519Z,43.62
2019-06-15T13:30:56.803Z,43.75
2019-06-15T13:33:26.091Z,44.13
2019-06-15T13:39:02.733Z,44.08
2019-06-15T13:41:32.021Z,44.00
2019-06-15T13:44:20.189Z,43.91
2019-06-15T13:46:49.479Z,43.63
2019-06-15T13:51:53.489Z,43.65
2019-06-15T13:57:11.074Z,43.68
2019-06-15T13:59:40.343Z,43.80
2019-06-15T14:02:09.625Z,44.00
2019-06-15T14:04:58.018Z,44.13
2019-06-15T14:10:22.374Z,44.01
2019-06-15T14:12:51.669Z,43.78
2019-06-15T14:18:09.260Z,41.67
2019-06-15T14:20:38.627Z,43.82
2019-06-15T14:23:07.896Z,43.70
2019-06-15T14:25:37.178Z,43.72
2019-06-15T14:33:15.704Z,43.25
2019-06-15T14:38:33.328Z,43.61
2019-06-15T14:41:02.616Z,41.87
2019-06-15T14:43:31.865Z,43.55
2019-06-15T14:46:01.138Z,43.52
2019-06-15T14:48:30.409Z,42.95
2019-06-15T14:50:59.739Z,43.21
2019-06-15T14:53:29.019Z,42.66
2019-06-15T14:56:17.182Z,43.66
2019-06-15T14:58:46.573Z,43.99
2019-06-15T15:01:16.782Z,43.83
2019-06-15T15:03:47.345Z,44.73
2019-06-15T15:06:17.871Z,45.60
2019-06-15T15:08:56.261Z,46.31
2019-06-15T15:11:46.117Z,46.66
2019-06-15T15:14:17.352Z,46.66
2019-06-15T15:16:46.816Z,46.95
2019-06-15T15:19:16.635Z,47.07
2019-06-15T15:21:47.066Z,47.42
2019-06-15T15:24:16.837Z,47.23
2019-06-15T15:26:47.421Z,47.28
2019-06-15T15:29:16.701Z,47.51
2019-06-15T15:31:46.669Z,47.56
2019-06-15T15:34:17.491Z,47.54
2019-06-15T15:36:47.962Z,47.69
2019-06-15T15:42:11.392Z,48.02
2019-06-15T15:44:40.665Z,48.37
2019-06-15T15:47:09.941Z,48.51
2019-06-15T15:49:39.219Z,48.78
2019-06-15T15:52:27.417Z,49.35
2019-06-15T15:54:56.762Z,49.95
2019-06-15T15:57:26.820Z,50.20
2019-06-15T15:59:57.023Z,50.46
2019-06-15T16:02:35.415Z,50.96
2019-06-15T16:04:57.693Z,51.15
2019-06-15T16:07:28.016Z,51.40
2019-06-15T16:09:58.078Z,52.04
2019-06-15T16:12:27.366Z,51.91
2019-06-15T16:14:56.641Z,52.22
2019-06-15T16:17:46.466Z,52.37
2019-06-15T16:23:17.502Z,52.61
2019-06-15T16:26:05.662Z,52.62
2019-06-15T16:28:36.596Z,53.57
2019-06-15T16:31:13.002Z,54.35
2019-06-15T16:33:37.353Z,54.99
2019-06-15T16:36:08.004Z,56.20
2019-06-15T16:38:37.274Z,55.53
2019-06-15T16:41:06.552Z,55.84
2019-06-15T16:43:37.036Z,55.82
2019-06-15T16:46:26.429Z,56.37
2019-06-15T16:48:56.949Z,55.94
2019-06-15T16:51:46.659Z,56.09
2019-06-15T16:54:16.704Z,56.23
2019-06-15T16:59:22.261Z,56.34
2019-06-15T17:01:51.585Z,56.39
2019-06-15T17:04:20.913Z,56.48
2019-06-15T17:06:50.165Z,56.70
2019-06-15T17:14:28.790Z,56.69
2019-06-15T17:16:58.155Z,56.83
2019-06-15T17:19:27.553Z,56.96
2019-06-15T17:22:01.067Z,57.18
2019-06-15T17:24:30.533Z,57.28
2019-06-15T17:26:59.804Z,57.40
2019-06-15T17:29:29.089Z,57.29
2019-06-15T17:31:58.369Z,57.41
2019-06-15T17:34:27.669Z,57.61
2019-06-15T17:36:57.483Z,57.76
2019-06-15T17:39:29.631Z,57.91
2019-06-15T17:41:59.119Z,58.10
2019-06-15T17:44:47.464Z,58.46
2019-06-15T17:47:17.064Z,58.74
2019-06-15T17:49:47.798Z,59.98
2019-06-15T17:52:19.118Z,59.91
2019-06-15T17:54:48.407Z,60.66
2019-06-15T17:57:36.610Z,61.09
2019-06-15T18:05:47.674Z,62.67
2019-06-15T18:08:16.761Z,62.69
2019-06-15T18:10:48.035Z,63.22
2019-06-15T18:13:37.369Z,63.04
2019-06-15T18:16:06.765Z,63.31
2019-06-15T18:18:37.121Z,63.78
2019-06-15T18:21:07.131Z,64.04
2019-06-15T18:23:37.014Z,64.18
2019-06-15T18:26:07.506Z,64.79
2019-06-15T18:31:26.993Z,65.56
2019-06-15T18:34:08.287Z,65.60
2019-06-15T18:36:27.511Z,65.60
2019-06-15T18:38:57.570Z,65.68
2019-06-15T18:41:27.817Z,65.79
2019-06-15T18:43:59.896Z,66.23
2019-06-15T18:46:29.252Z,66.18
2019-06-15T18:48:58.590Z,65.95
2019-06-15T18:51:27.948Z,65.33
2019-06-15T18:53:57.317Z,65.19
2019-06-15T18:56:27.082Z,64.36
2019-06-15T18:58:57.592Z,63.88
2019-06-15T19:01:27.196Z,63.50
2019-06-15T19:03:57.871Z,63.11
2019-06-15T19:09:16.289Z,63.23
2019-06-15T19:11:46.468Z,62.60
2019-06-15T19:14:16.589Z,62.91
2019-06-15T19:16:47.232Z,62.94
2019-06-15T19:19:17.800Z,62.97
2019-06-15T19:22:06.501Z,62.83
2019-06-15T19:24:37.132Z,62.70
2019-06-15T19:27:25.943Z,62.19
2019-06-15T19:35:11.612Z,61.13
2019-06-15T19:37:40.900Z,60.80
2019-06-15T19:40:49.536Z,60.78
2019-06-15T19:43:18.916Z,60.92
2019-06-15T19:45:48.209Z,60.65
2019-06-15T19:48:17.476Z,61.08
2019-06-15T19:50:46.779Z,60.71
2019-06-15T19:56:06.647Z,60.36
2019-06-15T19:58:35.357Z,60.21
2019-06-15T20:01:06.791Z,60.20
2019-06-15T20:03:36.255Z,60.21
2019-06-15T20:06:06.887Z,60.08
2019-06-15T20:08:36.482Z,60.02
2019-06-15T20:11:07.473Z,60.14
2019-06-15T20:13:38.228Z,60.21
2019-06-15T20:16:08.028Z,60.43
2019-06-15T20:18:38.615Z,60.39
2019-06-15T20:21:07.917Z,60.50
2019-06-15T20:23:37.719Z,60.27
2019-06-15T20:26:08.281Z,60.29
2019-06-15T20:28:37.584Z,60.19
2019-06-15T20:31:06.941Z,60.34
2019-06-15T20:33:36.922Z,60.49
2019-06-15T20:36:07.270Z,60.33
2019-06-15T20:38:36.638Z,60.04
2019-06-15T20:41:07.329Z,59.99
2019-06-15T20:43:36.911Z,59.77
2019-06-15T20:48:40.762Z,59.63
2019-06-15T20:51:10.457Z,59.58
2019-06-15T20:53:41.103Z,59.64
2019-06-15T20:56:29.268Z,59.64
2019-06-15T20:58:58.521Z,59.75
2019-06-15T21:01:27.810Z,59.63
2019-06-15T21:03:57.105Z,59.56
2019-06-15T21:06:26.496Z,59.25
2019-06-15T21:11:30.479Z,59.40
2019-06-15T21:13:59.742Z,59.26
2019-06-15T21:16:29.024Z,58.69
2019-06-15T21:18:58.248Z,58.22
2019-06-15T21:21:27.780Z,58.22
2019-06-15T21:23:58.557Z,58.17
2019-06-15T21:26:27.873Z,58.28
2019-06-15T21:28:57.156Z,58.23
2019-06-15T21:34:14.747Z,58.30
2019-06-15T21:36:46.016Z,58.36
2019-06-15T21:39:15.057Z,58.25
2019-06-15T21:41:46.263Z,58.16
2019-06-15T21:44:16.804Z,58.05
2019-06-15T21:46:46.855Z,57.90
2019-06-15T21:49:17.297Z,57.76
2019-06-15T21:51:47.320Z,57.60
2019-06-15T21:54:17.566Z,57.79
2019-06-15T21:56:46.834Z,57.83
2019-06-15T21:59:16.582Z,57.86
2019-06-15T22:01:47.139Z,57.77
2019-06-15T22:04:16.733Z,58.00
2019-06-15T22:06:47.788Z,57.86
2019-06-15T22:09:20.947Z,58.27
2019-06-15T22:12:08.359Z,58.40
2019-06-15T22:14:37.641Z,58.31
2019-06-15T22:17:06.940Z,57.92
2019-06-15T22:19:36.891Z,57.64
2019-06-15T22:22:07.771Z,57.47
2019-06-15T22:24:38.187Z,57.51
2019-06-15T22:27:07.462Z,57.21
2019-06-15T22:29:36.711Z,57.12
2019-06-15T22:32:06.917Z,57.17
2019-06-15T22:34:37.142Z,57.21
2019-06-15T22:37:26.337Z,57.27
2019-06-15T22:39:56.485Z,57.25
2019-06-15T22:42:25.760Z,57.32
2019-06-15T22:44:56.827Z,57.20
2019-06-15T22:47:27.049Z,57.06
2019-06-15T22:49:57.069Z,57.19
2019-06-15T22:52:26.535Z,57.45
2019-06-15T22:54:57.336Z,57.52
2019-06-15T22:57:26.625Z,57.70
2019-06-15T22:59:56.756Z,57.75
2019-06-15T23:02:26.911Z,57.81
2019-06-15T23:04:56.592Z,58.11
2019-06-15T23:07:27.209Z,58.25
2019-06-15T23:09:56.495Z,58.26
2019-06-15T23:12:25.753Z,58.18
2019-06-15T23:14:55.974Z,58.18
2019-06-15T23:17:26.024Z,58.14
2019-06-15T23:22:30.297Z,58.11
2019-06-15T23:24:59.566Z,58.32
2019-06-15T23:27:28.833Z,58.38
2019-06-15T23:29:58.105Z,58.56
2019-06-15T23:32:27.419Z,58.52
2019-06-15T23:34:56.708Z,58.47
2019-06-15T23:37:26.657Z,58.52
2019-06-15T23:40:16.305Z,58.77
2019-06-15T23:42:46.101Z,58.90
2019-06-15T23:48:04.905Z,58.86
2019-06-15T23:53:22.462Z,59.05
2019-06-15T23:55:51.707Z,59.25
2019-06-15T23:58:21.014Z,59.47
